Time;durP1;ratioP1;P1;durP2;ratioP2;P2;SDS_P1;SDS_P2;PMS_P1;PMS_P2;Temp;Humidity;BMP_temperature;BMP_pressure;BME280_temperature;BME280_humidity;BME280_pressure;Samples;Min_cycle;Max_cycle;Signal;HPM_P1;HPM_P2
2023/04/13 00:02:11;;;;;;;6.15;3.78;;;5.30;99.90;;;;;;5005532;28;20449;-56
2023/04/13 00:04:37;;;;;;;9.45;3.97;;;5.40;99.90;;;;;;5005755;28;20057;-55
2023/04/13 00:07:03;;;;;;;6.63;4.35;;;5.30;99.90;;;;;;5004400;28;20050;-58
2023/04/13 00:09:31;;;;;;;5.72;4.10;;;5.20;99.90;;;;;;5004919;28;20057;-56
2023/04/13 00:11:57;;;;;;;6.35;4.10;;;5.20;99.90;;;;;;5005308;28;20100;-59
2023/04/13 00:14:26;;;;;;;6.75;3.70;;;5.20;99.90;;;;;;5005203;28;20445;-56
2023/04/13 00:16:52;;;;;;;5.40;3.72;;;5.20;99.90;;;;;;5004971;28;20089;-59
2023/04/13 00:19:18;;;;;;;7.78;3.80;;;5.20;99.90;;;;;;5005195;28;20054;-47
2023/04/13 00:21:45;;;;;;;5.72;3.67;;;5.10;99.90;;;;;;5007824;28;20099;-54
2023/04/13 00:24:10;;;;;;;6.00;4.00;;;5.10;99.90;;;;;;5008611;28;20041;-48
2023/04/13 00:26:37;;;;;;;6.13;4.10;;;5.10;99.90;;;;;;5008798;28;20084;-57
2023/04/13 00:29:02;;;;;;;5.47;3.70;;;5.10;99.90;;;;;;5007638;28;20053;-51
2023/04/13 00:31:28;;;;;;;6.28;4.07;;;5.10;99.90;;;;;;5009169;28;20631;-47
2023/04/13 00:33:54;;;;;;;9.25;4.18;;;5.30;99.90;;;;;;5008580;28;20092;-53
2023/04/13 00:36:23;;;;;;;6.43;4.07;;;5.20;99.90;;;;;;5008205;28;20460;-55
2023/04/13 00:38:49;;;;;;;6.00;4.40;;;5.20;99.90;;;;;;5008736;28;20424;-52
2023/04/13 00:41:15;;;;;;;7.13;4.10;;;5.40;99.90;;;;;;5008194;28;20120;-58
2023/04/13 00:43:41;;;;;;;6.85;4.22;;;5.40;99.90;;;;;;5008583;28;20103;-58
2023/04/13 00:46:07;;;;;;;8.25;3.83;;;5.50;99.90;;;;;;5007664;28;20092;-55
2023/04/13 00:48:34;;;;;;;8.43;4.25;;;5.50;99.90;;;;;;5006771;28;20046;-59
2023/04/13 00:51:01;;;;;;;6.10;3.97;;;5.50;99.90;;;;;;5008068;28;20034;-55
2023/04/13 00:53:28;;;;;;;7.95;4.50;;;5.60;99.90;;;;;;5008645;28;20110;-53
2023/04/13 00:55:55;;;;;;;5.40;4.15;;;5.80;99.90;;;;;;5008067;28;20050;-56
2023/04/13 00:58:21;;;;;;;6.18;3.90;;;5.70;99.90;;;;;;5018279;28;20398;-56
2023/04/13 01:00:47;;;;;;;5.45;3.53;;;6.40;99.90;;;;;;5009694;28;20038;-56
2023/04/13 01:03:13;;;;;;;4.82;3.60;;;5.70;99.90;;;;;;5006748;28;20107;-58
2023/04/13 01:06:06;;;;;;;5.63;4.00;;;6.40;99.90;;;;;;5007005;28;20042;-57
2023/04/13 01:08:41;;;;;;;6.07;4.03;;;6.00;99.90;;;;;;5007890;28;20726;-57
2023/04/13 01:11:14;;;;;;;6.38;3.90;;;6.50;99.90;;;;;;5008274;28;20050;-51
2023/04/13 01:14:05;;;;;;;6.10;3.80;;;6.50;99.90;;;;;;5079205;22;20114;-56
2023/04/13 01:16:38;;;;;;;4.85;3.22;;;6.30;99.90;;;;;;4963994;28;20069;-56
2023/04/13 01:19:09;;;;;;;7.13;4.03;;;6.20;99.90;;;;;;4973103;28;20038;-54
2023/04/13 01:21:37;;;;;;;7.72;3.42;;;6.20;99.90;;;;;;4987610;28;20148;-57
2023/04/13 01:24:34;;;;;;;5.88;3.28;;;6.30;99.90;;;;;;4988314;28;20042;-57
2023/04/13 01:27:32;;;;;;;5.53;3.28;;;6.30;99.90;;;;;;4988399;28;20045;-57
2023/04/13 01:29:58;;;;;;;4.85;3.10;;;6.40;99.90;;;;;;4972101;28;20054;-57
2023/04/13 01:32:24;;;;;;;5.55;2.97;;;6.30;99.90;;;;;;4987516;28;20053;-51
2023/04/13 01:34:50;;;;;;;5.60;2.80;;;6.40;99.90;;;;;;4988311;28;20050;-57
2023/04/13 01:37:16;;;;;;;5.28;3.25;;;6.40;99.90;;;;;;4987277;28;20047;-50
2023/04/13 01:39:42;;;;;;;4.47;2.67;;;7.00;99.90;;;;;;4988096;28;20046;-55
2023/04/13 01:42:08;;;;;;;5.72;2.88;;;6.80;99.90;;;;;;4988328;28;20030;-57
2023/04/13 01:44:34;;;;;;;4.60;2.70;;;7.10;99.90;;;;;;4988280;28;20042;-53
2023/04/13 01:47:14;;;;;;;6.97;2.70;;;6.60;99.90;;;;;;4987831;28;20074;-56
2023/04/13 01:49:51;;;;;;;3.65;2.63;;;6.90;99.90;;;;;;4986159;28;20061;-52
2023/04/13 01:52:17;;;;;;;4.97;3.00;;;6.50;99.90;;;;;;4967333;28;20457;-55
2023/04/13 01:54:45;;;;;;;4.93;3.25;;;6.40;99.90;;;;;;4968580;28;20047;-58
2023/04/13 01:57:13;;;;;;;5.43;3.00;;;6.30;99.90;;;;;;4964520;28;20051;-56
2023/04/13 01:59:39;;;;;;;4.88;3.00;;;6.20;99.90;;;;;;4957190;28;20043;-56
2023/04/13 02:02:05;;;;;;;7.45;3.70;;;6.20;99.90;;;;;;4949207;28;20047;-53
2023/04/13 02:04:31;;;;;;;6.97;3.28;;;6.20;99.90;;;;;;4949894;28;20509;-55
2023/04/13 02:06:57;;;;;;;6.05;3.22;;;6.20;99.90;;;;;;4947812;28;20043;-58
2023/04/13 02:09:23;;;;;;;5.57;3.03;;;6.10;99.90;;;;;;4947451;28;20059;-57
2023/04/13 02:11:48;;;;;;;4.90;2.80;;;6.10;99.90;;;;;;4948451;28;20129;-59
2023/04/13 02:14:14;;;;;;;5.00;3.00;;;6.80;99.90;;;;;;4948206;28;20104;-55
2023/04/13 02:16:40;;;;;;;6.97;3.50;;;6.00;99.90;;;;;;4948280;28;20154;-55
2023/04/13 02:19:06;;;;;;;5.70;3.40;;;6.00;99.90;;;;;;4949327;28;20043;-57
2023/04/13 02:21:31;;;;;;;6.75;3.47;;;6.00;99.90;;;;;;4948311;28;20467;-53
2023/04/13 02:23:57;;;;;;;5.50;3.03;;;6.00;99.90;;;;;;4947094;28;20085;-54
2023/04/13 02:26:24;;;;;;;3.90;2.92;;;5.90;99.90;;;;;;4948291;28;20111;-57
2023/04/13 02:28:51;;;;;;;4.78;3.08;;;6.00;99.90;;;;;;4948551;28;20050;-57
2023/04/13 02:31:18;;;;;;;6.70;3.20;;;5.90;99.90;;;;;;4947286;28;20046;-53
2023/04/13 02:33:45;;;;;;;7.55;3.50;;;5.90;99.90;;;;;;4948656;28;20055;-52
2023/04/13 02:36:11;;;;;;;5.45;3.42;;;5.90;99.90;;;;;;4947957;28;20052;-56
2023/04/13 02:38:37;;;;;;;4.28;3.08;;;5.90;99.90;;;;;;4948615;28;20040;-53
2023/04/13 02:41:03;;;;;;;5.03;2.78;;;5.90;99.90;;;;;;4946955;29;20461;-55
2023/04/13 02:43:28;;;;;;;5.97;3.50;;;5.90;99.90;;;;;;4948632;28;20043;-55
2023/04/13 02:45:55;;;;;;;4.80;3.40;;;5.90;99.90;;;;;;4948100;28;20453;-56
2023/04/13 02:48:20;;;;;;;5.47;3.80;;;6.40;99.90;;;;;;4946699;28;20039;-53
2023/04/13 02:50:46;;;;;;;7.35;3.50;;;5.90;99.90;;;;;;4947541;28;20138;-56
2023/04/13 02:53:14;;;;;;;5.53;3.58;;;6.00;99.90;;;;;;4948395;28;20047;-57
2023/04/13 02:55:39;;;;;;;5.13;2.67;;;6.20;99.90;;;;;;4946783;29;20090;-57
2023/04/13 02:58:09;;;;;;;6.13;3.97;;;5.90;99.90;;;;;;4955772;28;20470;-56
2023/04/13 03:00:35;;;;;;;9.13;3.88;;;5.90;99.90;;;;;;4951535;28;20055;-55
2023/04/13 03:03:02;;;;;;;6.95;4.43;;;5.90;99.90;;;;;;4947908;28;20050;-57
2023/04/13 03:05:30;;;;;;;5.68;4.05;;;5.80;99.90;;;;;;4947748;28;20508;-50
2023/04/13 03:07:56;;;;;;;8.25;4.97;;;5.80;99.90;;;;;;4948351;28;20077;-54
2023/04/13 03:10:22;;;;;;;8.88;4.93;;;6.10;99.90;;;;;;4947915;28;20186;-56
2023/04/13 03:12:48;;;;;;;7.03;4.88;;;5.70;99.90;;;;;;4947981;28;20114;-53
2023/04/13 03:15:13;;;;;;;6.03;3.83;;;5.70;99.90;;;;;;4947443;28;20769;-57
2023/04/13 03:17:40;;;;;;;7.07;4.78;;;6.30;99.90;;;;;;4947456;28;20066;-52
2023/04/13 03:20:13;;;;;;;9.00;5.43;;;5.80;99.90;;;;;;4946991;28;20046;-56
2023/04/13 03:22:39;;;;;;;8.38;5.60;;;5.80;99.90;;;;;;4947460;28;20375;-49
2023/04/13 03:25:06;;;;;;;8.57;6.30;;;5.70;99.90;;;;;;4947974;28;20130;-57
2023/04/13 03:27:31;;;;;;;9.68;5.97;;;5.70;99.90;;;;;;4947523;28;20074;-54
2023/04/13 03:29:57;;;;;;;9.52;5.60;;;5.70;99.90;;;;;;4946553;28;20723;-57
2023/04/13 03:32:22;;;;;;;8.38;5.65;;;5.70;99.90;;;;;;4947791;28;20494;-54
2023/04/13 03:34:48;;;;;;;7.25;5.53;;;5.80;99.90;;;;;;4947153;28;20045;-54
2023/04/13 03:37:14;;;;;;;8.48;5.15;;;5.70;99.90;;;;;;4947217;28;20055;-56
2023/04/13 03:39:40;;;;;;;8.45;5.75;;;5.80;99.90;;;;;;4946523;28;20487;-51
2023/04/13 03:42:06;;;;;;;8.88;6.30;;;5.80;99.90;;;;;;4948302;28;20065;-57
2023/04/13 03:44:32;;;;;;;7.65;6.15;;;5.80;99.90;;;;;;4947411;28;20082;-52
2023/04/13 03:46:58;;;;;;;7.32;5.70;;;5.80;99.90;;;;;;4947384;28;20043;-56
2023/04/13 03:49:23;;;;;;;7.70;4.88;;;5.80;99.90;;;;;;4947587;28;20054;-57
2023/04/13 03:51:49;;;;;;;8.00;5.35;;;5.80;99.90;;;;;;4946372;28;20129;-59
2023/04/13 03:54:15;;;;;;;7.68;4.60;;;5.80;99.90;;;;;;4947738;28;20058;-56
2023/04/13 03:56:41;;;;;;;6.25;4.07;;;5.80;99.90;;;;;;4950492;28;20102;-54
2023/04/13 03:59:06;;;;;;;5.45;3.78;;;5.90;99.90;;;;;;4962246;28;20050;-53
2023/04/13 04:01:32;;;;;;;7.22;3.90;;;5.90;99.90;;;;;;4951490;28;20639;-57
2023/04/13 04:03:57;;;;;;;6.32;3.83;;;5.80;99.90;;;;;;4951618;28;20043;-53
2023/04/13 04:06:23;;;;;;;5.82;3.28;;;5.80;99.90;;;;;;4950941;28;20138;-57
2023/04/13 04:08:50;;;;;;;7.55;3.67;;;5.90;99.90;;;;;;4951172;28;20090;-57
2023/04/13 04:11:16;;;;;;;4.97;3.08;;;5.90;99.90;;;;;;4950915;28;20047;-51
2023/04/13 04:13:41;;;;;;;4.72;2.80;;;5.90;99.90;;;;;;4951273;28;20067;-49
2023/04/13 04:16:08;;;;;;;4.82;2.85;;;5.80;99.90;;;;;;4949953;28;20070;-56
2023/04/13 04:18:34;;;;;;;5.32;2.92;;;5.90;99.90;;;;;;4950977;28;20148;-55
2023/04/13 04:21:02;;;;;;;5.38;3.20;;;5.90;99.90;;;;;;4950702;28;20130;-56
2023/04/13 04:23:28;;;;;;;5.15;3.10;;;5.90;99.90;;;;;;4950261;28;20040;-53
2023/04/13 04:25:58;;;;;;;6.35;3.10;;;6.30;99.90;;;;;;4950991;28;20046;-53
2023/04/13 04:28:24;;;;;;;4.97;2.63;;;5.90;99.90;;;;;;4950674;28;20047;-57
2023/04/13 04:30:53;;;;;;;6.68;3.50;;;5.90;99.90;;;;;;4950785;28;20043;-56
2023/04/13 04:33:22;;;;;;;5.15;3.17;;;6.70;99.90;;;;;;4950559;28;20549;-57
2023/04/13 04:35:50;;;;;;;5.20;3.10;;;6.30;99.90;;;;;;4950071;28;20101;-54
2023/04/13 04:38:17;;;;;;;6.05;3.38;;;6.00;99.90;;;;;;4950957;28;20039;-56
2023/04/13 04:40:44;;;;;;;5.13;3.20;;;5.90;99.90;;;;;;4951300;28;20051;-50
2023/04/13 04:43:13;;;;;;;5.22;3.55;;;6.20;99.90;;;;;;4949884;29;20406;-56
2023/04/13 04:45:44;;;;;;;6.80;3.95;;;5.90;99.90;;;;;;4949506;28;20379;-52
2023/04/13 04:48:10;;;;;;;7.43;3.80;;;7.40;99.90;;;;;;4951288;28;20043;-54
2023/04/13 04:50:37;;;;;;;6.00;3.58;;;5.90;99.90;;;;;;4949615;28;20051;-50
2023/04/13 04:53:05;;;;;;;4.90;3.33;;;5.90;99.90;;;;;;4948892;29;20078;-57
2023/04/13 04:55:32;;;;;;;6.13;3.78;;;5.90;99.90;;;;;;4949721;28;20043;-55
2023/04/13 04:57:57;;;;;;;4.35;3.13;;;5.90;99.90;;;;;;4956768;28;20592;-56
2023/04/13 05:00:29;;;;;;;4.13;3.08;;;5.90;99.90;;;;;;4954394;28;20123;-56
2023/04/13 05:02:56;;;;;;;5.03;3.80;;;5.90;99.90;;;;;;4949962;28;20118;-55
2023/04/13 05:05:23;;;;;;;5.03;3.55;;;5.90;99.90;;;;;;4949814;28;20051;-56
2023/04/13 05:07:49;;;;;;;4.63;3.20;;;5.90;99.90;;;;;;4949423;28;20058;-54
2023/04/13 05:10:15;;;;;;;5.25;3.22;;;5.90;99.90;;;;;;4950226;28;20374;-51
2023/04/13 05:12:40;;;;;;;6.43;3.53;;;6.00;99.90;;;;;;4950833;28;20113;-56
2023/04/13 05:15:07;;;;;;;5.32;3.47;;;6.00;99.90;;;;;;4949685;28;20051;-55
2023/04/13 05:17:35;;;;;;;4.75;3.15;;;5.90;99.90;;;;;;4949856;28;20055;-56
2023/04/13 05:20:01;;;;;;;6.45;3.70;;;5.90;99.90;;;;;;4947620;28;20048;-54
2023/04/13 05:22:27;;;;;;;6.20;3.88;;;5.90;99.90;;;;;;4950291;28;20118;-51
2023/04/13 05:24:52;;;;;;;5.93;3.60;;;5.90;99.90;;;;;;4949550;28;20178;-54
2023/04/13 05:27:18;;;;;;;6.35;3.63;;;5.90;99.90;;;;;;4949640;28;20122;-57
2023/04/13 05:29:43;;;;;;;7.03;4.05;;;6.20;99.90;;;;;;4949896;28;20066;-49
2023/04/13 05:32:09;;;;;;;7.07;4.20;;;6.00;99.90;;;;;;4949476;28;20043;-54
2023/04/13 05:34:37;;;;;;;7.63;3.80;;;5.90;99.90;;;;;;4947873;28;20498;-56
2023/04/13 05:37:02;;;;;;;5.82;4.30;;;5.90;99.90;;;;;;4949277;28;20149;-54
2023/04/13 05:39:28;;;;;;;7.50;4.32;;;7.50;99.90;;;;;;4949600;28;20071;-56
2023/04/13 05:41:54;;;;;;;7.20;4.45;;;6.00;99.90;;;;;;4948918;28;20514;-55
2023/04/13 05:44:20;;;;;;;6.47;4.60;;;6.10;99.90;;;;;;4949620;28;20054;-54
2023/04/13 05:46:47;;;;;;;7.80;4.95;;;6.10;99.90;;;;;;4948779;28;20059;-56
2023/04/13 05:49:13;;;;;;;7.78;5.13;;;6.10;99.90;;;;;;4949503;28;20079;-56
2023/04/13 05:51:39;;;;;;;6.15;4.47;;;6.20;99.90;;;;;;4948388;28;20047;-56
2023/04/13 05:54:05;;;;;;;7.13;5.15;;;6.30;99.90;;;;;;4949458;28;20554;-55
2023/04/13 05:56:30;;;;;;;11.18;4.88;;;6.60;99.90;;;;;;4949404;28;20051;-54
2023/04/13 05:58:56;;;;;;;8.07;4.90;;;7.50;99.90;;;;;;4959236;28;20039;-55
2023/04/13 06:01:23;;;;;;;9.68;4.75;;;7.20;99.90;;;;;;4948470;28;20511;-57
2023/04/13 06:03:48;;;;;;;5.78;4.15;;;7.40;99.90;;;;;;4949234;28;20043;-53
2023/04/13 06:06:16;;;;;;;7.05;4.13;;;7.60;99.90;;;;;;4948607;28;20533;-54
2023/04/13 06:08:42;;;;;;;6.13;4.18;;;7.60;99.90;;;;;;4948650;28;20082;-55
2023/04/13 06:11:08;;;;;;;5.68;3.70;;;7.90;99.90;;;;;;4948645;28;20130;-56
2023/04/13 06:13:34;;;;;;;6.13;3.47;;;8.10;99.90;;;;;;4948754;28;20419;-56
2023/04/13 06:16:00;;;;;;;6.07;3.33;;;8.20;99.90;;;;;;4948577;28;20058;-57
2023/04/13 06:18:26;;;;;;;6.88;3.60;;;8.10;99.90;;;;;;4948380;28;20045;-56
2023/04/13 06:20:52;;;;;;;7.57;3.95;;;7.80;99.90;;;;;;4948300;28;20054;-55
2023/04/13 06:23:17;;;;;;;6.80;3.80;;;7.90;99.90;;;;;;4948874;28;20123;-56
2023/04/13 06:25:44;;;;;;;6.25;4.28;;;7.70;99.90;;;;;;4949002;28;20457;-54
2023/04/13 06:28:10;;;;;;;6.38;3.78;;;7.30;99.90;;;;;;4947101;28;20055;-59
2023/04/13 06:30:36;;;;;;;7.93;3.72;;;7.70;99.90;;;;;;4948552;28;20439;-55
2023/04/13 06:33:03;;;;;;;6.22;3.42;;;7.90;99.90;;;;;;4947205;29;20138;-53
2023/04/13 06:35:29;;;;;;;5.75;3.20;;;7.80;99.90;;;;;;4947646;28;20143;-57
2023/04/13 06:37:58;;;;;;;7.72;3.28;;;7.80;99.90;;;;;;4948071;28;20054;-52
2023/04/13 06:40:24;;;;;;;6.72;3.00;;;8.10;99.90;;;;;;4947824;28;20078;-49
2023/04/13 06:42:50;;;;;;;7.95;3.10;;;8.70;99.90;;;;;;4948517;28;20130;-55
2023/04/13 06:45:16;;;;;;;10.88;3.47;;;8.00;99.90;;;;;;4948410;28;20118;-56
2023/04/13 06:47:41;;;;;;;6.15;3.13;;;7.90;99.90;;;;;;4948021;28;20046;-57
2023/04/13 06:50:09;;;;;;;5.78;3.15;;;7.80;99.90;;;;;;4947562;28;20406;-54
2023/04/13 06:52:35;;;;;;;7.25;3.42;;;7.60;99.90;;;;;;4957868;28;20035;-56
2023/04/13 06:55:02;;;;;;;7.45;4.40;;;7.40;99.90;;;;;;4966750;28;20085;-56
2023/04/13 06:57:28;;;;;;;8.30;4.10;;;7.40;99.90;;;;;;4960151;28;20041;-57
2023/04/13 06:59:55;;;;;;;5.50;3.60;;;7.50;99.90;;;;;;4957680;28;20093;-55
2023/04/13 07:02:21;;;;;;;6.95;3.70;;;7.60;99.90;;;;;;4965681;28;20050;-53
2023/04/13 07:04:47;;;;;;;7.47;3.50;;;7.60;99.90;;;;;;4965459;28;20047;-56
2023/04/13 07:07:13;;;;;;;6.72;3.63;;;7.60;99.90;;;;;;4967219;28;20053;-52
2023/04/13 07:09:38;;;;;;;8.68;3.92;;;7.90;99.90;;;;;;4967268;28;20080;-56
2023/04/13 07:12:06;;;;;;;10.15;4.22;;;7.40;99.90;;;;;;4966458;28;20066;-59
2023/04/13 07:14:39;;;;;;;7.13;3.70;;;7.60;99.90;;;;;;4966920;28;20101;-57
2023/04/13 07:17:06;;;;;;;10.98;4.75;;;7.80;99.90;;;;;;4967110;28;20055;-55
2023/04/13 07:19:33;;;;;;;6.60;4.25;;;8.20;99.90;;;;;;4966327;28;20129;-56
2023/04/13 07:21:59;;;;;;;9.25;4.43;;;8.40;99.90;;;;;;4966894;28;20043;-57
2023/04/13 07:24:28;;;;;;;7.18;4.40;;;8.40;99.90;;;;;;4967025;28;20051;-55
2023/04/13 07:26:57;;;;;;;8.15;4.30;;;8.30;99.90;;;;;;4967033;28;20047;-51
2023/04/13 07:29:24;;;;;;;8.70;4.30;;;8.10;99.90;;;;;;4966951;28;20167;-53
2023/04/13 07:31:50;;;;;;;6.38;4.18;;;8.00;99.90;;;;;;4971178;28;20410;-53
2023/04/13 07:34:17;;;;;;;9.90;4.70;;;7.80;99.90;;;;;;4969439;28;20081;-57
2023/04/13 07:36:43;;;;;;;8.27;3.88;;;7.80;99.90;;;;;;4970867;28;20047;-56
2023/04/13 07:39:09;;;;;;;8.90;4.32;;;7.90;99.90;;;;;;4971195;28;20071;-56
2023/04/13 07:41:36;;;;;;;9.50;4.05;;;8.30;99.90;;;;;;4971102;28;20043;-54
2023/04/13 07:44:03;;;;;;;6.43;2.95;;;8.20;99.90;;;;;;4970619;28;20121;-57
2023/04/13 07:46:29;;;;;;;7.68;3.00;;;9.30;99.90;;;;;;4970597;28;20070;-52
2023/04/13 07:48:55;;;;;;;8.23;3.80;;;9.50;99.90;;;;;;4970988;28;20078;-59
2023/04/13 07:51:21;;;;;;;6.65;3.47;;;8.70;99.90;;;;;;4969825;28;20046;-56
2023/04/13 07:53:47;;;;;;;7.43;3.85;;;8.80;99.90;;;;;;4971036;28;20051;-55
2023/04/13 07:56:13;;;;;;;6.60;3.00;;;9.20;99.90;;;;;;4970265;28;20061;-56
2023/04/13 07:58:39;;;;;;;6.15;2.90;;;8.90;99.90;;;;;;4963231;28;20065;-55
2023/04/13 08:01:05;;;;;;;5.95;2.90;;;8.80;99.90;;;;;;4951636;28;20047;-57
2023/04/13 08:03:35;;;;;;;7.25;2.95;;;8.70;99.90;;;;;;4951033;28;20178;-57
2023/04/13 08:06:04;;;;;;;6.57;2.90;;;9.30;99.90;;;;;;4950290;28;20161;-55
2023/04/13 08:08:32;;;;;;;5.88;2.67;;;9.00;99.90;;;;;;4950694;28;20050;-57
2023/04/13 08:10:58;;;;;;;7.25;3.03;;;9.30;99.90;;;;;;4965969;28;20086;-57
2023/04/13 08:13:23;;;;;;;7.25;2.90;;;9.20;99.90;;;;;;4950909;28;20079;-54
2023/04/13 08:15:49;;;;;;;9.30;2.55;;;9.00;99.90;;;;;;4950808;28;20097;-56
2023/04/13 08:18:15;;;;;;;8.07;3.03;;;8.80;99.90;;;;;;4951276;28;20047;-57
2023/04/13 08:20:41;;;;;;;7.28;2.65;;;8.80;99.90;;;;;;4949910;28;20047;-55
2023/04/13 08:23:06;;;;;;;6.63;3.00;;;8.80;99.90;;;;;;4950173;28;20407;-56
2023/04/13 08:25:37;;;;;;;6.88;3.47;;;8.90;99.90;;;;;;4949759;29;20371;-57
2023/04/13 08:28:02;;;;;;;6.75;2.20;;;9.30;99.90;;;;;;4949421;28;20062;-57
2023/04/13 08:30:31;;;;;;;5.70;2.25;;;9.30;99.90;;;;;;4950012;28;20047;-52
2023/04/13 08:32:57;;;;;;;5.97;2.47;;;9.20;99.90;;;;;;4950825;28;20051;-57
2023/04/13 08:35:23;;;;;;;5.32;2.42;;;9.10;99.90;;;;;;4948887;28;20059;-55
2023/04/13 08:37:48;;;;;;;7.50;2.55;;;9.00;99.90;;;;;;4950015;28;20403;-56
2023/04/13 08:40:17;;;;;;;7.30;2.47;;;8.90;99.90;;;;;;4950343;28;20035;-56
2023/04/13 08:42:43;;;;;;;5.93;2.25;;;9.00;99.90;;;;;;4950579;28;20091;-57
2023/04/13 08:45:09;;;;;;;4.93;2.00;;;9.00;99.90;;;;;;4950881;28;20101;-55
2023/04/13 08:47:35;;;;;;;6.63;2.30;;;9.10;99.90;;;;;;4949530;28;20455;-55
2023/04/13 08:50:02;;;;;;;4.72;1.85;;;9.00;99.90;;;;;;4949905;28;20130;-54
2023/04/13 08:52:28;;;;;;;5.82;1.85;;;9.00;99.90;;;;;;4950275;28;20043;-52
2023/04/13 08:54:57;;;;;;;6.03;2.45;;;9.00;99.90;;;;;;4949043;28;20102;-56
2023/04/13 08:57:23;;;;;;;3.58;2.00;;;8.80;99.90;;;;;;4951355;28;20042;-55
2023/04/13 08:59:53;;;;;;;4.55;1.75;;;8.90;99.90;;;;;;4958788;28;20511;-56
2023/04/13 09:02:25;;;;;;;6.50;1.92;;;9.00;99.90;;;;;;4949232;28;20085;-51
2023/04/13 09:04:56;;;;;;;4.68;1.73;;;9.10;99.90;;;;;;4949659;28;20123;-55
2023/04/13 09:07:25;;;;;;;4.70;1.63;;;9.10;99.90;;;;;;4950535;28;20047;-58
2023/04/13 09:09:55;;;;;;;3.53;1.80;;;8.90;99.90;;;;;;4949885;28;20043;-56
2023/04/13 09:12:20;;;;;;;4.82;2.03;;;8.80;99.90;;;;;;4950324;28;20047;-53
2023/04/13 09:14:46;;;;;;;6.75;2.60;;;8.70;99.90;;;;;;4948479;29;20159;-57
2023/04/13 09:17:27;;;;;;;5.47;2.42;;;8.60;99.90;;;;;;4949413;28;20043;-56
2023/04/13 09:19:56;;;;;;;5.88;2.67;;;8.40;99.90;;;;;;4949163;28;20039;-54
2023/04/13 09:22:24;;;;;;;5.18;2.38;;;8.80;99.90;;;;;;4948108;29;20410;-54
2023/04/13 09:24:50;;;;;;;5.25;2.67;;;8.20;99.90;;;;;;4949854;28;20101;-56
2023/04/13 09:27:20;;;;;;;5.90;2.80;;;8.60;99.90;;;;;;4950066;28;20046;-57
2023/04/13 09:29:55;;;;;;;6.30;2.58;;;8.10;99.90;;;;;;4949405;28;20560;-56
2023/04/13 09:32:22;;;;;;;5.13;2.22;;;8.00;99.90;;;;;;4948480;28;20062;-53
2023/04/13 09:35:04;;;;;;;5.35;1.80;;;8.10;99.90;;;;;;4949438;28;20047;-56
2023/04/13 09:37:31;;;;;;;4.65;2.00;;;8.20;99.90;;;;;;4950087;28;20082;-52
2023/04/13 09:40:09;;;;;;;4.88;1.50;;;8.60;99.90;;;;;;4949717;28;20122;-57
2023/04/13 09:42:35;;;;;;;2.72;1.38;;;8.50;99.90;;;;;;4949631;28;20066;-53
2023/04/13 09:45:00;;;;;;;3.47;1.20;;;8.60;99.90;;;;;;4949381;28;20483;-52
2023/04/13 09:47:35;;;;;;;2.38;0.80;;;8.80;99.90;;;;;;4950089;28;20126;-54
2023/04/13 09:50:03;;;;;;;1.88;0.70;;;9.10;99.90;;;;;;4944797;28;20403;-49
2023/04/13 09:52:30;;;;;;;1.15;0.60;;;9.30;99.90;;;;;;4966390;28;20043;-52
2023/04/13 09:54:57;;;;;;;2.38;0.73;;;9.60;99.90;;;;;;4950532;28;20482;-55
2023/04/13 09:57:27;;;;;;;1.30;0.45;;;9.80;99.90;;;;;;4961636;28;20046;-56
2023/04/13 09:59:54;;;;;;;0.80;0.30;;;9.90;99.90;;;;;;4967598;28;20046;-53
2023/04/13 10:02:20;;;;;;;1.15;0.50;;;10.10;99.90;;;;;;4968205;28;20055;-54
2023/04/13 10:04:46;;;;;;;0.95;0.60;;;10.00;99.90;;;;;;4966410;28;20043;-51
2023/04/13 10:07:12;;;;;;;1.48;0.60;;;10.10;99.90;;;;;;4966651;28;20050;-54
2023/04/13 10:09:43;;;;;;;3.00;0.80;;;10.20;99.90;;;;;;4967585;28;20035;-54
2023/04/13 10:12:13;;;;;;;1.65;0.70;;;10.20;99.90;;;;;;4967822;28;20046;-55
2023/04/13 10:14:42;;;;;;;1.50;0.50;;;10.20;99.90;;;;;;4968064;28;20086;-55
2023/04/13 10:17:11;;;;;;;2.88;0.60;;;9.90;99.90;;;;;;4965959;28;20609;-51
2023/04/13 10:19:42;;;;;;;0.90;0.55;;;9.80;99.90;;;;;;4966902;28;20054;-49
2023/04/13 10:22:08;;;;;;;4.70;0.75;;;10.10;99.90;;;;;;4967370;28;20077;-55
2023/04/13 10:24:35;;;;;;;1.70;0.60;;;10.20;99.90;;;;;;4967388;28;20093;-54
2023/04/13 10:27:10;;;;;;;2.10;0.70;;;10.20;99.90;;;;;;4967606;28;20085;-54
2023/04/13 10:29:36;;;;;;;1.75;0.65;;;10.00;99.90;;;;;;4966376;28;20054;-53
2023/04/13 10:32:02;;;;;;;3.72;1.10;;;9.60;99.90;;;;;;4967292;28;20042;-55
2023/04/13 10:34:33;;;;;;;4.13;0.95;;;9.30;99.90;;;;;;4965637;28;20090;-54
2023/04/13 10:37:02;;;;;;;1.40;0.35;;;8.90;99.90;;;;;;4968091;28;20054;-54
2023/04/13 10:39:31;;;;;;;2.30;0.60;;;8.80;99.90;;;;;;4967258;28;20055;-54
2023/04/13 10:42:00;;;;;;;2.38;0.68;;;8.10;99.90;;;;;;4967241;28;20039;-50
2023/04/13 10:44:27;;;;;;;2.03;0.43;;;7.90;99.90;;;;;;4966077;28;20078;-55
2023/04/13 10:46:52;;;;;;;3.47;0.80;;;7.60;99.90;;;;;;4967391;28;20050;-54
2023/04/13 10:49:30;;;;;;;1.95;0.70;;;7.60;99.90;;;;;;4966871;28;20523;-51
2023/04/13 10:51:55;;;;;;;2.42;0.70;;;7.50;99.90;;;;;;4966102;28;20054;-53
2023/04/13 10:54:23;;;;;;;1.45;0.70;;;7.50;99.90;;;;;;4967046;28;20045;-55
2023/04/13 10:57:00;;;;;;;2.90;0.95;;;7.60;99.90;;;;;;4965102;28;20114;-50
2023/04/13 10:59:43;;;;;;;3.25;0.90;;;7.60;99.90;;;;;;4956243;28;20535;-55
2023/04/13 11:02:14;;;;;;;3.08;0.75;;;7.60;99.90;;;;;;4947496;28;20047;-54
2023/04/13 11:04:42;;;;;;;3.83;0.80;;;7.90;99.90;;;;;;4945090;28;20051;-54
2023/04/13 11:07:12;;;;;;;1.38;0.50;;;7.70;99.90;;;;;;4947738;28;20082;-55
2023/04/13 11:09:38;;;;;;;1.80;0.52;;;7.60;99.90;;;;;;4947028;28;20463;-56
2023/04/13 11:12:07;;;;;;;2.38;0.63;;;7.50;99.90;;;;;;4947676;28;20632;-52
2023/04/13 11:14:35;;;;;;;1.88;0.30;;;7.60;99.90;;;;;;4947088;28;20134;-54
2023/04/13 11:17:01;;;;;;;1.75;0.40;;;7.60;99.90;;;;;;4946485;29;20048;-54
2023/04/13 11:19:26;;;;;;;1.13;0.60;;;7.60;99.90;;;;;;4949815;28;20121;-56
2023/04/13 11:21:54;;;;;;;2.45;0.75;;;7.70;99.90;;;;;;4966902;28;20151;-56
2023/04/13 11:24:25;;;;;;;2.22;0.70;;;7.60;99.90;;;;;;4965467;28;20106;-53
2023/04/13 11:26:51;;;;;;;5.00;1.00;;;7.80;99.90;;;;;;4979514;28;20097;-56
2023/04/13 11:29:20;;;;;;;2.80;1.00;;;8.20;99.90;;;;;;4966087;28;20498;-50
2023/04/13 11:31:45;;;;;;;3.97;0.90;;;8.30;99.90;;;;;;4965900;28;20121;-57
2023/04/13 11:34:11;;;;;;;3.70;1.25;;;8.60;99.90;;;;;;4964400;28;20125;-55
2023/04/13 11:36:38;;;;;;;7.10;1.63;;;8.60;99.90;;;;;;4966107;28;20125;-57
2023/04/13 11:39:07;;;;;;;7.75;1.70;;;8.70;99.90;;;;;;4965974;28;20047;-57
2023/04/13 11:41:42;;;;;;;6.85;1.65;;;9.00;99.90;;;;;;4965611;28;20042;-56
2023/04/13 11:44:10;;;;;;;4.80;1.58;;;9.00;99.90;;;;;;4965840;28;20059;-56
2023/04/13 11:46:36;;;;;;;6.30;1.50;;;9.10;99.90;;;;;;4964052;28;20051;-51
2023/04/13 11:49:03;;;;;;;8.82;2.05;;;9.20;99.90;;;;;;4965557;28;20513;-54
2023/04/13 11:51:30;;;;;;;6.57;1.88;;;9.50;99.90;;;;;;4966532;28;20050;-53
2023/04/13 11:53:57;;;;;;;6.82;2.25;;;9.80;99.90;;;;;;4965523;28;20035;-52
2023/04/13 11:56:24;;;;;;;10.13;2.20;;;10.00;99.90;;;;;;4966267;28;20055;-53
2023/04/13 11:58:52;;;;;;;10.57;2.25;;;10.00;99.90;;;;;;4954277;28;20082;-55
2023/04/13 12:01:20;;;;;;;6.05;1.88;;;10.10;99.90;;;;;;4966579;28;20050;-53
2023/04/13 12:03:46;;;;;;;7.82;2.03;;;10.10;99.90;;;;;;4965152;28;20054;-53
2023/04/13 12:06:13;;;;;;;7.28;1.85;;;10.20;99.90;;;;;;4964728;28;20059;-51
2023/04/13 12:08:39;;;;;;;7.60;1.35;;;10.00;99.90;;;;;;4965901;28;20046;-56
2023/04/13 12:11:05;;;;;;;7.95;2.00;;;10.00;99.90;;;;;;4966028;28;20181;-57
2023/04/13 12:13:49;;;;;;;8.52;2.45;;;10.30;99.90;;;;;;4965666;28;20039;-58
2023/04/13 12:16:28;;;;;;;8.05;1.65;;;10.10;99.90;;;;;;4967882;28;20062;-57
2023/04/13 12:18:54;;;;;;;7.00;1.75;;;10.40;99.90;;;;;;4969269;28;20053;-58
2023/04/13 12:21:21;;;;;;;7.22;1.75;;;10.50;99.90;;;;;;4969742;28;20445;-58
2023/04/13 12:23:57;;;;;;;7.68;1.85;;;10.40;99.90;;;;;;4969393;28;20473;-58
2023/04/13 12:26:35;;;;;;;9.35;1.95;;;10.40;99.90;;;;;;4970055;28;20049;-55
2023/04/13 12:29:03;;;;;;;15.27;1.70;;;10.40;99.90;;;;;;4969647;28;20039;-58
2023/04/13 12:31:46;;;;;;;8.18;1.75;;;10.40;99.90;;;;;;4969385;28;20047;-55
2023/04/13 12:34:12;;;;;;;7.68;1.70;;;10.50;99.90;;;;;;4967828;28;20047;-53
2023/04/13 12:36:38;;;;;;;6.97;1.77;;;10.40;99.90;;;;;;4969384;28;20105;-59
2023/04/13 12:39:03;;;;;;;9.35;2.10;;;10.30;99.90;;;;;;4969918;28;20496;-58
2023/04/13 12:41:29;;;;;;;9.27;2.35;;;10.40;99.90;;;;;;4969167;28;20112;-48
2023/04/13 12:43:54;;;;;;;7.07;1.40;;;10.40;99.90;;;;;;4969495;28;20501;-53
2023/04/13 12:46:20;;;;;;;7.22;1.42;;;10.50;99.90;;;;;;4968623;28;20050;-59
2023/04/13 12:48:46;;;;;;;6.35;1.23;;;10.60;99.90;;;;;;4968828;28;20047;-48
2023/04/13 12:51:12;;;;;;;6.05;1.25;;;10.60;99.90;;;;;;4969017;28;20069;-57
2023/04/13 12:53:38;;;;;;;4.75;1.13;;;10.60;99.90;;;;;;4968464;28;20043;-55
2023/04/13 12:56:03;;;;;;;6.93;1.60;;;10.50;99.90;;;;;;4968572;28;20053;-56
2023/04/13 12:58:29;;;;;;;7.70;1.38;;;10.40;99.90;;;;;;4961779;28;20057;-56